sensor_id;sensor_type;location;lat;lon;timestamp;P1;durP1;ratioP1;P2;durP2;ratioP2
13329;SDS011;6734;48.638;8.896;2022-08-03T00:01:27;4.67;;;3.57;;
13329;SDS011;6734;48.638;8.896;2022-08-03T00:03:53;3.60;;;3.13;;
13329;SDS011;6734;48.638;8.896;2022-08-03T00:06:19;5.90;;;3.20;;
13329;SDS011;6734;48.638;8.896;2022-08-03T00:08:44;3.60;;;3.20;;
13329;SDS011;6734;48.638;8.896;2022-08-03T00:11:10;4.33;;;3.10;;
13329;SDS011;6734;48.638;8.896;2022-08-03T00:13:36;3.90;;;3.03;;
13329;SDS011;6734;48.638;8.896;2022-08-03T00:16:01;3.70;;;3.30;;
13329;SDS011;6734;48.638;8.896;2022-08-03T00:18:28;6.37;;;3.67;;
13329;SDS011;6734;48.638;8.896;2022-08-03T00:20:53;3.63;;;3.33;;
13329;SDS011;6734;48.638;8.896;2022-08-03T00:23:19;4.50;;;3.43;;
13329;SDS011;6734;48.638;8.896;2022-08-03T00:25:45;3.40;;;3.10;;
13329;SDS011;6734;48.638;8.896;2022-08-03T00:28:11;3.63;;;3.27;;
13329;SDS011;6734;48.638;8.896;2022-08-03T00:30:37;4.60;;;3.00;;
13329;SDS011;6734;48.638;8.896;2022-08-03T00:33:02;4.43;;;3.07;;
13329;SDS011;6734;48.638;8.896;2022-08-03T00:35:28;4.43;;;3.23;;
13329;SDS011;6734;48.638;8.896;2022-08-03T00:37:55;3.43;;;2.80;;
13329;SDS011;6734;48.638;8.896;2022-08-03T00:40:21;6.30;;;2.93;;
13329;SDS011;6734;48.638;8.896;2022-08-03T00:42:51;5.00;;;3.47;;
13329;SDS011;6734;48.638;8.896;2022-08-03T00:45:19;3.27;;;2.97;;
13329;SDS011;6734;48.638;8.896;2022-08-03T00:47:45;3.73;;;3.10;;
13329;SDS011;6734;48.638;8.896;2022-08-03T00:50:12;3.60;;;2.90;;
13329;SDS011;6734;48.638;8.896;2022-08-03T00:52:38;3.70;;;2.70;;
13329;SDS011;6734;48.638;8.896;2022-08-03T00:55:04;4.50;;;3.17;;
13329;SDS011;6734;48.638;8.896;2022-08-03T00:57:30;3.67;;;3.00;;
13329;SDS011;6734;48.638;8.896;2022-08-03T00:59:57;3.30;;;3.00;;
13329;SDS011;6734;48.638;8.896;2022-08-03T01:02:29;3.40;;;3.10;;
13329;SDS011;6734;48.638;8.896;2022-08-03T01:04:55;3.70;;;3.27;;
13329;SDS011;6734;48.638;8.896;2022-08-03T01:07:24;3.50;;;3.20;;
13329;SDS011;6734;48.638;8.896;2022-08-03T01:15:04;3.87;;;3.43;;
13329;SDS011;6734;48.638;8.896;2022-08-03T01:18:05;3.67;;;3.20;;
13329;SDS011;6734;48.638;8.896;2022-08-03T01:20:33;5.17;;;4.17;;
13329;SDS011;6734;48.638;8.896;2022-08-03T01:23:16;4.73;;;3.80;;
13329;SDS011;6734;48.638;8.896;2022-08-03T01:31:20;5.33;;;3.97;;
13329;SDS011;6734;48.638;8.896;2022-08-03T01:33:51;4.70;;;3.40;;
13329;SDS011;6734;48.638;8.896;2022-08-03T01:36:21;5.20;;;3.80;;
13329;SDS011;6734;48.638;8.896;2022-08-03T01:38:52;3.80;;;3.40;;
13329;SDS011;6734;48.638;8.896;2022-08-03T01:41:20;3.73;;;3.20;;
13329;SDS011;6734;48.638;8.896;2022-08-03T01:43:50;4.10;;;3.70;;
13329;SDS011;6734;48.638;8.896;2022-08-03T01:46:18;4.00;;;3.30;;
13329;SDS011;6734;48.638;8.896;2022-08-03T01:48:45;4.47;;;3.50;;
13329;SDS011;6734;48.638;8.896;2022-08-03T01:51:12;4.00;;;3.20;;
13329;SDS011;6734;48.638;8.896;2022-08-03T01:53:40;5.27;;;3.40;;
13329;SDS011;6734;48.638;8.896;2022-08-03T01:56:08;3.60;;;3.20;;
13329;SDS011;6734;48.638;8.896;2022-08-03T01:58:35;5.40;;;3.40;;
13329;SDS011;6734;48.638;8.896;2022-08-03T02:01:02;3.63;;;3.33;;
13329;SDS011;6734;48.638;8.896;2022-08-03T02:03:30;3.80;;;3.30;;
13329;SDS011;6734;48.638;8.896;2022-08-03T02:06:00;3.73;;;3.00;;
13329;SDS011;6734;48.638;8.896;2022-08-03T02:08:27;5.07;;;3.80;;
13329;SDS011;6734;48.638;8.896;2022-08-03T02:10:54;3.50;;;3.20;;
13329;SDS011;6734;48.638;8.896;2022-08-03T02:13:21;4.57;;;3.73;;
13329;SDS011;6734;48.638;8.896;2022-08-03T02:15:48;4.83;;;3.30;;
13329;SDS011;6734;48.638;8.896;2022-08-03T02:18:17;4.57;;;3.20;;
13329;SDS011;6734;48.638;8.896;2022-08-03T02:20:43;3.90;;;3.60;;
13329;SDS011;6734;48.638;8.896;2022-08-03T02:23:09;3.50;;;3.20;;
13329;SDS011;6734;48.638;8.896;2022-08-03T02:25:37;3.80;;;3.37;;
13329;SDS011;6734;48.638;8.896;2022-08-03T02:28:10;4.23;;;3.60;;
13329;SDS011;6734;48.638;8.896;2022-08-03T02:30:39;5.23;;;3.60;;
13329;SDS011;6734;48.638;8.896;2022-08-03T02:33:11;4.03;;;3.57;;
13329;SDS011;6734;48.638;8.896;2022-08-03T02:35:39;4.37;;;3.40;;
13329;SDS011;6734;48.638;8.896;2022-08-03T02:38:07;3.50;;;3.20;;
13329;SDS011;6734;48.638;8.896;2022-08-03T02:40:35;4.63;;;3.53;;
13329;SDS011;6734;48.638;8.896;2022-08-03T02:43:03;3.73;;;3.33;;
13329;SDS011;6734;48.638;8.896;2022-08-03T02:45:30;5.07;;;3.87;;
13329;SDS011;6734;48.638;8.896;2022-08-03T02:47:59;3.53;;;3.17;;
13329;SDS011;6734;48.638;8.896;2022-08-03T02:50:28;3.53;;;3.23;;
13329;SDS011;6734;48.638;8.896;2022-08-03T02:52:55;4.40;;;2.97;;
13329;SDS011;6734;48.638;8.896;2022-08-03T02:55:22;3.53;;;3.07;;
13329;SDS011;6734;48.638;8.896;2022-08-03T02:57:50;3.87;;;3.20;;
13329;SDS011;6734;48.638;8.896;2022-08-03T03:00:17;3.27;;;2.97;;
13329;SDS011;6734;48.638;8.896;2022-08-03T03:02:43;3.37;;;3.00;;
13329;SDS011;6734;48.638;8.896;2022-08-03T03:05:10;3.50;;;3.20;;
13329;SDS011;6734;48.638;8.896;2022-08-03T03:07:36;3.50;;;3.10;;
13329;SDS011;6734;48.638;8.896;2022-08-03T03:10:03;3.27;;;2.97;;
13329;SDS011;6734;48.638;8.896;2022-08-03T03:12:30;3.80;;;3.40;;
13329;SDS011;6734;48.638;8.896;2022-08-03T03:14:57;5.80;;;3.63;;
13329;SDS011;6734;48.638;8.896;2022-08-03T03:17:22;4.57;;;3.20;;
13329;SDS011;6734;48.638;8.896;2022-08-03T03:19:49;4.00;;;3.47;;
13329;SDS011;6734;48.638;8.896;2022-08-03T03:22:16;4.17;;;3.60;;
13329;SDS011;6734;48.638;8.896;2022-08-03T03:24:43;3.87;;;3.20;;
13329;SDS011;6734;48.638;8.896;2022-08-03T03:27:10;3.57;;;3.27;;
13329;SDS011;6734;48.638;8.896;2022-08-03T03:29:36;5.33;;;3.40;;
13329;SDS011;6734;48.638;8.896;2022-08-03T03:32:02;3.63;;;3.20;;
13329;SDS011;6734;48.638;8.896;2022-08-03T03:34:28;4.37;;;3.30;;
13329;SDS011;6734;48.638;8.896;2022-08-03T03:36:54;8.00;;;4.00;;
13329;SDS011;6734;48.638;8.896;2022-08-03T03:39:20;5.93;;;4.30;;
13329;SDS011;6734;48.638;8.896;2022-08-03T03:41:46;7.67;;;4.03;;
13329;SDS011;6734;48.638;8.896;2022-08-03T03:44:12;6.83;;;3.80;;
13329;SDS011;6734;48.638;8.896;2022-08-03T03:46:37;5.17;;;3.67;;
13329;SDS011;6734;48.638;8.896;2022-08-03T03:49:04;4.30;;;3.73;;
13329;SDS011;6734;48.638;8.896;2022-08-03T03:51:31;4.53;;;3.77;;
13329;SDS011;6734;48.638;8.896;2022-08-03T03:53:58;6.03;;;3.90;;
13329;SDS011;6734;48.638;8.896;2022-08-03T03:56:25;4.40;;;4.00;;
13329;SDS011;6734;48.638;8.896;2022-08-03T03:58:52;5.27;;;3.77;;
13329;SDS011;6734;48.638;8.896;2022-08-03T04:01:18;3.87;;;3.47;;
13329;SDS011;6734;48.638;8.896;2022-08-03T04:03:44;7.00;;;3.90;;
13329;SDS011;6734;48.638;8.896;2022-08-03T04:06:10;4.63;;;3.70;;
13329;SDS011;6734;48.638;8.896;2022-08-03T04:08:55;4.27;;;3.43;;
13329;SDS011;6734;48.638;8.896;2022-08-03T04:11:40;4.77;;;3.60;;
13329;SDS011;6734;48.638;8.896;2022-08-03T04:16:52;4.30;;;3.70;;
13329;SDS011;6734;48.638;8.896;2022-08-03T04:22:00;4.00;;;3.47;;
13329;SDS011;6734;48.638;8.896;2022-08-03T04:24:38;4.40;;;3.93;;
13329;SDS011;6734;48.638;8.896;2022-08-03T04:27:10;4.83;;;3.40;;
13329;SDS011;6734;48.638;8.896;2022-08-03T04:29:40;5.37;;;3.53;;
13329;SDS011;6734;48.638;8.896;2022-08-03T04:32:09;4.70;;;4.20;;
13329;SDS011;6734;48.638;8.896;2022-08-03T04:34:36;4.33;;;3.80;;
13329;SDS011;6734;48.638;8.896;2022-08-03T04:37:03;4.97;;;3.93;;
13329;SDS011;6734;48.638;8.896;2022-08-03T04:39:34;4.50;;;3.37;;
13329;SDS011;6734;48.638;8.896;2022-08-03T04:42:03;5.40;;;4.07;;
13329;SDS011;6734;48.638;8.896;2022-08-03T04:44:33;5.63;;;4.37;;
13329;SDS011;6734;48.638;8.896;2022-08-03T04:47:01;4.93;;;3.90;;
13329;SDS011;6734;48.638;8.896;2022-08-03T04:49:27;4.23;;;3.83;;
13329;SDS011;6734;48.638;8.896;2022-08-03T04:51:53;4.97;;;3.70;;
13329;SDS011;6734;48.638;8.896;2022-08-03T04:54:19;4.23;;;3.83;;
13329;SDS011;6734;48.638;8.896;2022-08-03T04:56:45;4.67;;;4.17;;
13329;SDS011;6734;48.638;8.896;2022-08-03T04:59:11;4.30;;;3.77;;
13329;SDS011;6734;48.638;8.896;2022-08-03T05:01:38;6.20;;;3.60;;
13329;SDS011;6734;48.638;8.896;2022-08-03T05:04:05;4.40;;;3.73;;
13329;SDS011;6734;48.638;8.896;2022-08-03T05:06:31;5.17;;;4.10;;
13329;SDS011;6734;48.638;8.896;2022-08-03T05:08:57;5.80;;;4.10;;
13329;SDS011;6734;48.638;8.896;2022-08-03T05:11:22;4.60;;;4.20;;
13329;SDS011;6734;48.638;8.896;2022-08-03T05:13:48;5.73;;;4.17;;
13329;SDS011;6734;48.638;8.896;2022-08-03T05:16:14;5.87;;;4.80;;
13329;SDS011;6734;48.638;8.896;2022-08-03T05:18:40;5.53;;;4.37;;
13329;SDS011;6734;48.638;8.896;2022-08-03T05:21:07;6.63;;;5.00;;
13329;SDS011;6734;48.638;8.896;2022-08-03T05:23:33;5.40;;;4.90;;
13329;SDS011;6734;48.638;8.896;2022-08-03T05:25:59;8.60;;;4.87;;
13329;SDS011;6734;48.638;8.896;2022-08-03T05:28:25;6.50;;;5.27;;
13329;SDS011;6734;48.638;8.896;2022-08-03T05:30:50;5.70;;;4.90;;
13329;SDS011;6734;48.638;8.896;2022-08-03T05:33:16;6.23;;;5.23;;
13329;SDS011;6734;48.638;8.896;2022-08-03T05:35:42;5.27;;;4.50;;
13329;SDS011;6734;48.638;8.896;2022-08-03T05:38:08;7.47;;;6.47;;
13329;SDS011;6734;48.638;8.896;2022-08-03T05:40:34;5.83;;;5.07;;
13329;SDS011;6734;48.638;8.896;2022-08-03T05:43:00;6.80;;;5.37;;
13329;SDS011;6734;48.638;8.896;2022-08-03T05:45:25;5.50;;;4.73;;
13329;SDS011;6734;48.638;8.896;2022-08-03T05:47:51;6.33;;;4.73;;
13329;SDS011;6734;48.638;8.896;2022-08-03T05:50:18;5.17;;;4.40;;
13329;SDS011;6734;48.638;8.896;2022-08-03T05:52:44;7.27;;;5.37;;
13329;SDS011;6734;48.638;8.896;2022-08-03T05:55:10;6.27;;;4.73;;
13329;SDS011;6734;48.638;8.896;2022-08-03T05:57:37;9.30;;;5.03;;
13329;SDS011;6734;48.638;8.896;2022-08-03T06:00:04;6.17;;;4.93;;
13329;SDS011;6734;48.638;8.896;2022-08-03T06:02:32;5.77;;;4.23;;
13329;SDS011;6734;48.638;8.896;2022-08-03T06:04:57;6.80;;;5.00;;
13329;SDS011;6734;48.638;8.896;2022-08-03T06:07:23;4.60;;;4.20;;
13329;SDS011;6734;48.638;8.896;2022-08-03T06:09:49;5.47;;;4.53;;
13329;SDS011;6734;48.638;8.896;2022-08-03T06:12:15;6.47;;;5.03;;
13329;SDS011;6734;48.638;8.896;2022-08-03T06:14:41;6.47;;;5.10;;
13329;SDS011;6734;48.638;8.896;2022-08-03T06:17:07;6.20;;;4.30;;
13329;SDS011;6734;48.638;8.896;2022-08-03T06:19:32;7.63;;;5.00;;
13329;SDS011;6734;48.638;8.896;2022-08-03T06:21:58;4.67;;;4.17;;
13329;SDS011;6734;48.638;8.896;2022-08-03T06:24:24;5.50;;;4.57;;
13329;SDS011;6734;48.638;8.896;2022-08-03T06:26:50;6.90;;;5.20;;
13329;SDS011;6734;48.638;8.896;2022-08-03T06:29:16;8.70;;;5.63;;
13329;SDS011;6734;48.638;8.896;2022-08-03T06:31:41;6.40;;;4.70;;
13329;SDS011;6734;48.638;8.896;2022-08-03T06:34:07;9.23;;;4.97;;
13329;SDS011;6734;48.638;8.896;2022-08-03T06:36:33;7.13;;;5.10;;
13329;SDS011;6734;48.638;8.896;2022-08-03T06:38:59;9.93;;;5.30;;
13329;SDS011;6734;48.638;8.896;2022-08-03T06:41:26;6.87;;;4.97;;
13329;SDS011;6734;48.638;8.896;2022-08-03T06:43:52;5.13;;;4.63;;
13329;SDS011;6734;48.638;8.896;2022-08-03T06:46:18;5.50;;;4.50;;
13329;SDS011;6734;48.638;8.896;2022-08-03T06:48:44;5.10;;;4.60;;
13329;SDS011;6734;48.638;8.896;2022-08-03T06:51:09;6.23;;;5.10;;
13329;SDS011;6734;48.638;8.896;2022-08-03T06:53:35;6.97;;;5.37;;
13329;SDS011;6734;48.638;8.896;2022-08-03T06:56:03;5.50;;;4.67;;
13329;SDS011;6734;48.638;8.896;2022-08-03T06:58:29;6.73;;;4.60;;
13329;SDS011;6734;48.638;8.896;2022-08-03T07:00:54;7.70;;;4.50;;
13329;SDS011;6734;48.638;8.896;2022-08-03T07:03:20;5.43;;;4.17;;
13329;SDS011;6734;48.638;8.896;2022-08-03T07:05:45;4.27;;;3.60;;
13329;SDS011;6734;48.638;8.896;2022-08-03T07:08:12;5.87;;;3.80;;
13329;SDS011;6734;48.638;8.896;2022-08-03T07:10:38;4.03;;;3.53;;
13329;SDS011;6734;48.638;8.896;2022-08-03T07:13:05;7.30;;;3.60;;
13329;SDS011;6734;48.638;8.896;2022-08-03T07:15:31;4.80;;;3.90;;
13329;SDS011;6734;48.638;8.896;2022-08-03T07:17:57;3.77;;;3.33;;
13329;SDS011;6734;48.638;8.896;2022-08-03T07:20:23;4.23;;;2.97;;
13329;SDS011;6734;48.638;8.896;2022-08-03T07:22:49;2.77;;;2.43;;
13329;SDS011;6734;48.638;8.896;2022-08-03T07:25:15;3.40;;;3.10;;
13329;SDS011;6734;48.638;8.896;2022-08-03T07:27:44;3.60;;;2.90;;
13329;SDS011;6734;48.638;8.896;2022-08-03T07:30:10;4.57;;;3.67;;
13329;SDS011;6734;48.638;8.896;2022-08-03T07:32:36;4.37;;;3.30;;
13329;SDS011;6734;48.638;8.896;2022-08-03T07:35:03;5.13;;;3.53;;
13329;SDS011;6734;48.638;8.896;2022-08-03T07:37:30;4.33;;;3.57;;
13329;SDS011;6734;48.638;8.896;2022-08-03T07:39:57;3.80;;;3.00;;
13329;SDS011;6734;48.638;8.896;2022-08-03T07:42:23;3.67;;;3.30;;
13329;SDS011;6734;48.638;8.896;2022-08-03T07:44:49;4.67;;;2.73;;
13329;SDS011;6734;48.638;8.896;2022-08-03T07:47:18;3.83;;;3.10;;
13329;SDS011;6734;48.638;8.896;2022-08-03T07:49:44;3.67;;;2.83;;
13329;SDS011;6734;48.638;8.896;2022-08-03T07:52:10;3.27;;;2.83;;
13329;SDS011;6734;48.638;8.896;2022-08-03T07:54:54;3.33;;;2.90;;
13329;SDS011;6734;48.638;8.896;2022-08-03T07:57:20;3.33;;;2.80;;
13329;SDS011;6734;48.638;8.896;2022-08-03T07:59:46;3.37;;;2.70;;
13329;SDS011;6734;48.638;8.896;2022-08-03T08:02:12;2.67;;;2.40;;
13329;SDS011;6734;48.638;8.896;2022-08-03T08:04:38;2.50;;;2.30;;
13329;SDS011;6734;48.638;8.896;2022-08-03T08:07:04;3.23;;;2.63;;
13329;SDS011;6734;48.638;8.896;2022-08-03T08:09:30;3.43;;;2.83;;
13329;SDS011;6734;48.638;8.896;2022-08-03T08:11:56;3.93;;;2.87;;
13329;SDS011;6734;48.638;8.896;2022-08-03T08:14:21;3.67;;;2.57;;
13329;SDS011;6734;48.638;8.896;2022-08-03T08:16:47;2.63;;;2.37;;
13329;SDS011;6734;48.638;8.896;2022-08-03T08:19:14;3.23;;;2.50;;
13329;SDS011;6734;48.638;8.896;2022-08-03T08:21:40;3.13;;;2.40;;
13329;SDS011;6734;48.638;8.896;2022-08-03T08:24:06;2.60;;;2.30;;
13329;SDS011;6734;48.638;8.896;2022-08-03T08:26:32;2.40;;;2.20;;
13329;SDS011;6734;48.638;8.896;2022-08-03T08:28:58;3.10;;;2.40;;
13329;SDS011;6734;48.638;8.896;2022-08-03T08:31:24;2.17;;;1.97;;
13329;SDS011;6734;48.638;8.896;2022-08-03T08:33:50;2.30;;;2.10;;
13329;SDS011;6734;48.638;8.896;2022-08-03T08:36:16;2.10;;;1.90;;
13329;SDS011;6734;48.638;8.896;2022-08-03T08:38:42;2.37;;;1.93;;
13329;SDS011;6734;48.638;8.896;2022-08-03T08:41:09;2.47;;;2.23;;
13329;SDS011;6734;48.638;8.896;2022-08-03T08:43:36;2.73;;;1.60;;
13329;SDS011;6734;48.638;8.896;2022-08-03T08:46:02;2.17;;;1.80;;
13329;SDS011;6734;48.638;8.896;2022-08-03T08:48:27;1.70;;;1.40;;
13329;SDS011;6734;48.638;8.896;2022-08-03T08:50:54;1.77;;;1.63;;
13329;SDS011;6734;48.638;8.896;2022-08-03T08:53:20;2.30;;;1.47;;
13329;SDS011;6734;48.638;8.896;2022-08-03T08:55:49;2.37;;;1.50;;
13329;SDS011;6734;48.638;8.896;2022-08-03T08:58:15;1.60;;;1.50;;
13329;SDS011;6734;48.638;8.896;2022-08-03T09:00:46;3.17;;;1.63;;
13329;SDS011;6734;48.638;8.896;2022-08-03T09:03:12;2.20;;;2.00;;
13329;SDS011;6734;48.638;8.896;2022-08-03T09:05:40;2.00;;;1.77;;
13329;SDS011;6734;48.638;8.896;2022-08-03T09:08:07;3.97;;;1.67;;
13329;SDS011;6734;48.638;8.896;2022-08-03T09:10:32;1.77;;;1.60;;
13329;SDS011;6734;48.638;8.896;2022-08-03T09:12:59;2.20;;;2.00;;
13329;SDS011;6734;48.638;8.896;2022-08-03T09:15:26;2.20;;;1.80;;
13329;SDS011;6734;48.638;8.896;2022-08-03T09:17:56;2.07;;;1.83;;
13329;SDS011;6734;48.638;8.896;2022-08-03T09:20:24;2.30;;;1.90;;
13329;SDS011;6734;48.638;8.896;2022-08-03T09:25:25;1.50;;;1.40;;
13329;SDS011;6734;48.638;8.896;2022-08-03T09:28:02;1.67;;;1.57;;
13329;SDS011;6734;48.638;8.896;2022-08-03T09:30:39;1.80;;;1.63;;
13329;SDS011;6734;48.638;8.896;2022-08-03T09:33:08;2.07;;;1.70;;
13329;SDS011;6734;48.638;8.896;2022-08-03T09:35:42;1.90;;;1.70;;
13329;SDS011;6734;48.638;8.896;2022-08-03T09:38:15;3.50;;;1.90;;
13329;SDS011;6734;48.638;8.896;2022-08-03T09:40:43;2.63;;;1.87;;
13329;SDS011;6734;48.638;8.896;2022-08-03T09:43:09;1.90;;;1.70;;
13329;SDS011;6734;48.638;8.896;2022-08-03T09:45:36;1.53;;;1.43;;
13329;SDS011;6734;48.638;8.896;2022-08-03T09:50:57;1.70;;;1.60;;
13329;SDS011;6734;48.638;8.896;2022-08-03T09:53:24;1.90;;;1.80;;
13329;SDS011;6734;48.638;8.896;2022-08-03T09:55:55;2.20;;;2.00;;
13329;SDS011;6734;48.638;8.896;2022-08-03T09:58:24;2.40;;;1.97;;
13329;SDS011;6734;48.638;8.896;2022-08-03T10:00:54;3.27;;;1.90;;
13329;SDS011;6734;48.638;8.896;2022-08-03T10:03:25;1.97;;;1.80;;
13329;SDS011;6734;48.638;8.896;2022-08-03T10:05:52;1.73;;;1.63;;
13329;SDS011;6734;48.638;8.896;2022-08-03T10:08:18;2.37;;;2.13;;
13329;SDS011;6734;48.638;8.896;2022-08-03T10:10:45;1.70;;;1.60;;
13329;SDS011;6734;48.638;8.896;2022-08-03T10:13:13;2.93;;;1.87;;
13329;SDS011;6734;48.638;8.896;2022-08-03T10:15:40;1.77;;;1.67;;
13329;SDS011;6734;48.638;8.896;2022-08-03T10:18:06;1.70;;;1.57;;
13329;SDS011;6734;48.638;8.896;2022-08-03T10:20:32;2.30;;;1.93;;
13329;SDS011;6734;48.638;8.896;2022-08-03T10:23:13;1.80;;;1.70;;
13329;SDS011;6734;48.638;8.896;2022-08-03T10:25:40;1.90;;;1.60;;
13329;SDS011;6734;48.638;8.896;2022-08-03T10:28:10;2.57;;;2.03;;
13329;SDS011;6734;48.638;8.896;2022-08-03T10:30:40;2.40;;;2.10;;
13329;SDS011;6734;48.638;8.896;2022-08-03T10:33:21;2.20;;;1.90;;
13329;SDS011;6734;48.638;8.896;2022-08-03T10:35:53;2.17;;;1.70;;
13329;SDS011;6734;48.638;8.896;2022-08-03T10:38:22;2.10;;;1.93;;
13329;SDS011;6734;48.638;8.896;2022-08-03T10:40:53;2.63;;;2.00;;
13329;SDS011;6734;48.638;8.896;2022-08-03T10:43:20;2.53;;;2.30;;
13329;SDS011;6734;48.638;8.896;2022-08-03T10:45:50;2.23;;;2.03;;
13329;SDS011;6734;48.638;8.896;2022-08-03T10:48:17;3.07;;;1.77;;
13329;SDS011;6734;48.638;8.896;2022-08-03T10:50:43;2.63;;;2.00;;
13329;SDS011;6734;48.638;8.896;2022-08-03T10:53:10;2.57;;;2.17;;
13329;SDS011;6734;48.638;8.896;2022-08-03T11:01:00;3.77;;;2.60;;
13329;SDS011;6734;48.638;8.896;2022-08-03T11:03:26;2.47;;;2.10;;
13329;SDS011;6734;48.638;8.896;2022-08-03T11:05:52;2.43;;;2.10;;
13329;SDS011;6734;48.638;8.896;2022-08-03T11:10:51;2.53;;;2.33;;
13329;SDS011;6734;48.638;8.896;2022-08-03T11:13:20;2.90;;;2.07;;
13329;SDS011;6734;48.638;8.896;2022-08-03T11:15:49;2.03;;;1.83;;
13329;SDS011;6734;48.638;8.896;2022-08-03T11:18:17;2.27;;;2.07;;
13329;SDS011;6734;48.638;8.896;2022-08-03T11:23:40;2.53;;;1.90;;
13329;SDS011;6734;48.638;8.896;2022-08-03T11:26:09;1.90;;;1.70;;
13329;SDS011;6734;48.638;8.896;2022-08-03T11:28:36;1.93;;;1.83;;
13329;SDS011;6734;48.638;8.896;2022-08-03T11:39:19;1.80;;;1.70;;
13329;SDS011;6734;48.638;8.896;2022-08-03T11:41:44;2.00;;;1.80;;
13329;SDS011;6734;48.638;8.896;2022-08-03T11:44:37;2.37;;;2.17;;
13329;SDS011;6734;48.638;8.896;2022-08-03T11:47:05;1.83;;;1.70;;
13329;SDS011;6734;48.638;8.896;2022-08-03T11:49:32;1.83;;;1.67;;
13329;SDS011;6734;48.638;8.896;2022-08-03T11:51:59;2.55;;;1.83;;
13329;SDS011;6734;48.638;8.896;2022-08-03T11:54:25;2.10;;;1.90;;
13329;SDS011;6734;48.638;8.896;2022-08-03T11:56:50;2.10;;;1.90;;
13329;SDS011;6734;48.638;8.896;2022-08-03T11:59:16;2.55;;;2.35;;
13329;SDS011;6734;48.638;8.896;2022-08-03T12:01:42;2.13;;;1.92;;
13329;SDS011;6734;48.638;8.896;2022-08-03T12:04:09;2.05;;;1.95;;
13329;SDS011;6734;48.638;8.896;2022-08-03T12:06:35;2.40;;;1.95;;
13329;SDS011;6734;48.638;8.896;2022-08-03T12:09:19;2.30;;;2.00;;
13329;SDS011;6734;48.638;8.896;2022-08-03T12:11:49;2.72;;;1.83;;
13329;SDS011;6734;48.638;8.896;2022-08-03T12:14:15;2.10;;;2.00;;
13329;SDS011;6734;48.638;8.896;2022-08-03T12:16:45;2.35;;;2.05;;
13329;SDS011;6734;48.638;8.896;2022-08-03T12:19:12;2.13;;;2.03;;
13329;SDS011;6734;48.638;8.896;2022-08-03T12:21:47;3.03;;;2.30;;
13329;SDS011;6734;48.638;8.896;2022-08-03T12:24:14;4.32;;;2.25;;
13329;SDS011;6734;48.638;8.896;2022-08-03T12:26:44;3.50;;;2.20;;
13329;SDS011;6734;48.638;8.896;2022-08-03T12:29:20;3.53;;;2.00;;
13329;SDS011;6734;48.638;8.896;2022-08-03T12:31:47;2.28;;;2.08;;
13329;SDS011;6734;48.638;8.896;2022-08-03T12:34:13;3.50;;;2.15;;
13329;SDS011;6734;48.638;8.896;2022-08-03T12:36:49;2.33;;;2.13;;
13329;SDS011;6734;48.638;8.896;2022-08-03T12:39:15;2.42;;;2.22;;
13329;SDS011;6734;48.638;8.896;2022-08-03T12:41:41;2.78;;;1.75;;
13329;SDS011;6734;48.638;8.896;2022-08-03T12:44:07;2.30;;;2.10;;
13329;SDS011;6734;48.638;8.896;2022-08-03T12:46:40;4.40;;;2.10;;
13329;SDS011;6734;48.638;8.896;2022-08-03T12:49:09;2.10;;;2.00;;
13329;SDS011;6734;48.638;8.896;2022-08-03T12:54:08;2.72;;;2.10;;
13329;SDS011;6734;48.638;8.896;2022-08-03T12:57:03;2.15;;;1.95;;
13329;SDS011;6734;48.638;8.896;2022-08-03T12:59:40;2.70;;;2.25;;
13329;SDS011;6734;48.638;8.896;2022-08-03T13:04:42;3.38;;;2.10;;
13329;SDS011;6734;48.638;8.896;2022-08-03T13:07:12;2.55;;;2.00;;
13329;SDS011;6734;48.638;8.896;2022-08-03T13:09:48;1.95;;;1.85;;
13329;SDS011;6734;48.638;8.896;2022-08-03T13:12:17;2.42;;;2.22;;
13329;SDS011;6734;48.638;8.896;2022-08-03T13:14:45;2.35;;;2.10;;
13329;SDS011;6734;48.638;8.896;2022-08-03T13:17:12;2.30;;;2.10;;
13329;SDS011;6734;48.638;8.896;2022-08-03T13:19:38;4.78;;;2.35;;
13329;SDS011;6734;48.638;8.896;2022-08-03T13:22:21;2.10;;;2.00;;
13329;SDS011;6734;48.638;8.896;2022-08-03T13:24:53;2.20;;;2.00;;
13329;SDS011;6734;48.638;8.896;2022-08-03T13:27:23;2.42;;;2.22;;
13329;SDS011;6734;48.638;8.896;2022-08-03T13:29:49;2.30;;;2.10;;
13329;SDS011;6734;48.638;8.896;2022-08-03T13:32:15;2.40;;;2.17;;
13329;SDS011;6734;48.638;8.896;2022-08-03T13:34:41;1.80;;;1.70;;
13329;SDS011;6734;48.638;8.896;2022-08-03T13:37:08;2.10;;;2.00;;
13329;SDS011;6734;48.638;8.896;2022-08-03T13:39:35;2.40;;;2.20;;
13329;SDS011;6734;48.638;8.896;2022-08-03T13:42:02;2.92;;;2.30;;
13329;SDS011;6734;48.638;8.896;2022-08-03T13:44:27;3.00;;;2.25;;
13329;SDS011;6734;48.638;8.896;2022-08-03T13:46:53;4.82;;;1.80;;
13329;SDS011;6734;48.638;8.896;2022-08-03T13:49:18;2.28;;;2.05;;
13329;SDS011;6734;48.638;8.896;2022-08-03T13:51:44;2.15;;;1.92;;
13329;SDS011;6734;48.638;8.896;2022-08-03T13:54:10;2.63;;;2.25;;
13329;SDS011;6734;48.638;8.896;2022-08-03T13:56:35;2.40;;;2.20;;
13329;SDS011;6734;48.638;8.896;2022-08-03T13:59:01;2.72;;;2.20;;
13329;SDS011;6734;48.638;8.896;2022-08-03T14:01:27;2.45;;;2.28;;
13329;SDS011;6734;48.638;8.896;2022-08-03T14:03:53;2.20;;;2.00;;
13329;SDS011;6734;48.638;8.896;2022-08-03T14:06:20;2.22;;;2.03;;
13329;SDS011;6734;48.638;8.896;2022-08-03T14:08:47;2.08;;;1.98;;
13329;SDS011;6734;48.638;8.896;2022-08-03T14:11:13;2.28;;;2.10;;
13329;SDS011;6734;48.638;8.896;2022-08-03T14:13:40;2.15;;;2.00;;
13329;SDS011;6734;48.638;8.896;2022-08-03T14:16:06;2.38;;;2.00;;
13329;SDS011;6734;48.638;8.896;2022-08-03T14:18:32;2.10;;;2.00;;
13329;SDS011;6734;48.638;8.896;2022-08-03T14:20:57;1.90;;;1.80;;
13329;SDS011;6734;48.638;8.896;2022-08-03T14:23:24;2.30;;;2.10;;
13329;SDS011;6734;48.638;8.896;2022-08-03T14:25:49;1.90;;;1.80;;
13329;SDS011;6734;48.638;8.896;2022-08-03T14:28:15;2.25;;;1.90;;
13329;SDS011;6734;48.638;8.896;2022-08-03T14:30:41;2.15;;;2.03;;
13329;SDS011;6734;48.638;8.896;2022-08-03T14:33:07;2.30;;;2.10;;
13329;SDS011;6734;48.638;8.896;2022-08-03T14:35:32;2.00;;;1.80;;
13329;SDS011;6734;48.638;8.896;2022-08-03T14:37:58;2.40;;;2.20;;
13329;SDS011;6734;48.638;8.896;2022-08-03T14:40:24;3.35;;;2.08;;
13329;SDS011;6734;48.638;8.896;2022-08-03T14:42:50;2.30;;;2.10;;
13329;SDS011;6734;48.638;8.896;2022-08-03T14:45:15;2.22;;;2.03;;
13329;SDS011;6734;48.638;8.896;2022-08-03T14:47:41;2.38;;;2.17;;
13329;SDS011;6734;48.638;8.896;2022-08-03T14:50:07;2.85;;;2.25;;
13329;SDS011;6734;48.638;8.896;2022-08-03T14:52:33;2.55;;;1.90;;
13329;SDS011;6734;48.638;8.896;2022-08-03T14:54:59;2.92;;;2.20;;
13329;SDS011;6734;48.638;8.896;2022-08-03T14:57:25;4.25;;;2.20;;
13329;SDS011;6734;48.638;8.896;2022-08-03T14:59:51;2.08;;;1.98;;
13329;SDS011;6734;48.638;8.896;2022-08-03T15:02:17;2.80;;;2.20;;
13329;SDS011;6734;48.638;8.896;2022-08-03T15:04:43;2.00;;;1.90;;
13329;SDS011;6734;48.638;8.896;2022-08-03T15:07:09;3.10;;;1.77;;
13329;SDS011;6734;48.638;8.896;2022-08-03T15:09:35;2.33;;;2.13;;
13329;SDS011;6734;48.638;8.896;2022-08-03T15:12:02;2.15;;;1.90;;
13329;SDS011;6734;48.638;8.896;2022-08-03T15:14:29;2.13;;;2.00;;
13329;SDS011;6734;48.638;8.896;2022-08-03T15:16:54;2.28;;;2.13;;
13329;SDS011;6734;48.638;8.896;2022-08-03T15:19:20;2.30;;;2.10;;
13329;SDS011;6734;48.638;8.896;2022-08-03T15:21:46;2.15;;;2.03;;
13329;SDS011;6734;48.638;8.896;2022-08-03T15:24:11;2.03;;;1.92;;
13329;SDS011;6734;48.638;8.896;2022-08-03T15:26:37;2.55;;;1.90;;
13329;SDS011;6734;48.638;8.896;2022-08-03T15:29:03;2.70;;;2.20;;
13329;SDS011;6734;48.638;8.896;2022-08-03T15:31:28;2.22;;;2.03;;
13329;SDS011;6734;48.638;8.896;2022-08-03T15:33:54;2.25;;;2.15;;
13329;SDS011;6734;48.638;8.896;2022-08-03T15:36:20;2.55;;;2.17;;
13329;SDS011;6734;48.638;8.896;2022-08-03T15:38:45;2.30;;;2.10;;
13329;SDS011;6734;48.638;8.896;2022-08-03T15:41:12;3.58;;;2.25;;
13329;SDS011;6734;48.638;8.896;2022-08-03T15:43:38;2.50;;;2.30;;
13329;SDS011;6734;48.638;8.896;2022-08-03T15:46:04;2.75;;;2.42;;
13329;SDS011;6734;48.638;8.896;2022-08-03T15:48:30;3.88;;;2.70;;